createdAt,value
2018-12-15T00:01:56.124Z,20.60
2018-12-15T00:04:24.021Z,18.50
2018-12-15T00:06:51.555Z,19.53
2018-12-15T00:09:19.369Z,18.57
2018-12-15T00:11:46.921Z,20.10
2018-12-15T00:14:14.443Z,20.47
2018-12-15T00:16:42.015Z,19.60
2018-12-15T00:19:09.563Z,18.70
2018-12-15T00:21:37.694Z,18.60
2018-12-15T00:24:05.214Z,18.43
2018-12-15T00:26:32.772Z,17.13
2018-12-15T00:29:00.898Z,17.33
2018-12-15T00:31:28.430Z,17.67
2018-12-15T00:33:55.980Z,17.07
2018-12-15T00:36:24.364Z,18.87
2018-12-15T00:38:51.998Z,19.30
2018-12-15T00:41:19.530Z,18.63
2018-12-15T00:43:47.082Z,20.70
2018-12-15T00:46:14.630Z,16.43
2018-12-15T00:48:42.158Z,18.97
2018-12-15T00:51:09.931Z,19.30
2018-12-15T00:53:37.531Z,18.83
2018-12-15T00:56:05.514Z,18.30
2018-12-15T01:01:10.311Z,18.87
2018-12-15T01:03:37.834Z,21.00
2018-12-15T01:06:05.341Z,18.70
2018-12-15T01:08:32.852Z,17.90
2018-12-15T01:11:00.370Z,17.67
2018-12-15T01:13:27.953Z,18.65
2018-12-15T01:15:55.458Z,17.47
2018-12-15T01:18:22.967Z,20.10
2018-12-15T01:20:50.504Z,19.48
2018-12-15T01:23:18.013Z,20.30
2018-12-15T01:25:45.525Z,17.97
2018-12-15T01:28:13.035Z,18.77
2018-12-15T01:30:40.549Z,17.53
2018-12-15T01:33:08.087Z,20.33
2018-12-15T01:35:35.603Z,19.00
2018-12-15T01:38:03.125Z,18.47
2018-12-15T01:40:30.668Z,18.50
2018-12-15T01:42:58.187Z,18.53
2018-12-15T01:45:25.710Z,20.92
2018-12-15T01:47:53.231Z,19.17
2018-12-15T01:50:20.744Z,17.77
2018-12-15T01:52:48.384Z,20.33
2018-12-15T01:55:15.900Z,17.50
2018-12-15T01:57:43.415Z,18.67
2018-12-15T02:00:13.077Z,19.00
2018-12-15T02:02:40.667Z,19.20
2018-12-15T02:05:08.176Z,18.90
2018-12-15T02:07:35.683Z,19.17
2018-12-15T02:10:04.496Z,18.17
2018-12-15T02:12:32.018Z,19.17
2018-12-15T02:14:59.745Z,19.90
2018-12-15T02:17:33.431Z,19.57
2018-12-15T02:19:57.123Z,19.40
2018-12-15T02:22:24.674Z,18.10
2018-12-15T02:24:52.188Z,19.48
2018-12-15T02:27:19.710Z,18.62
2018-12-15T02:29:47.281Z,18.03
2018-12-15T02:32:14.793Z,19.00
2018-12-15T02:34:42.295Z,18.07
2018-12-15T02:37:09.803Z,19.07
2018-12-15T02:39:37.318Z,20.47
2018-12-15T02:42:05.025Z,20.20
2018-12-15T02:44:32.534Z,18.77
2018-12-15T02:47:00.048Z,20.23
2018-12-15T02:49:27.564Z,19.33
2018-12-15T02:51:55.087Z,19.53
2018-12-15T02:54:22.616Z,18.57
2018-12-15T02:56:50.151Z,20.00
2018-12-15T02:59:17.678Z,20.50
2018-12-15T03:01:45.570Z,20.00
2018-12-15T03:04:13.075Z,19.10
2018-12-15T03:06:40.651Z,21.23
2018-12-15T03:09:08.795Z,19.40
2018-12-15T03:11:36.396Z,20.07
2018-12-15T03:14:04.039Z,19.83
2018-12-15T03:16:31.807Z,21.23
2018-12-15T03:19:03.237Z,19.70
2018-12-15T03:21:30.760Z,20.47
2018-12-15T03:23:58.474Z,18.20
2018-12-15T03:26:25.987Z,18.67
2018-12-15T03:28:53.506Z,20.10
2018-12-15T03:31:21.321Z,18.40
2018-12-15T03:33:48.934Z,18.57
2018-12-15T03:36:16.448Z,20.77
2018-12-15T03:38:43.967Z,19.50
2018-12-15T03:41:11.527Z,20.97
2018-12-15T03:43:39.051Z,16.40
2018-12-15T03:46:06.559Z,19.62
2018-12-15T03:48:34.161Z,19.40
2018-12-15T03:51:01.690Z,18.90
2018-12-15T03:53:29.210Z,18.50
2018-12-15T03:58:22.406Z,18.60
2018-12-15T04:00:49.939Z,20.20
2018-12-15T04:03:17.467Z,18.32
2018-12-15T04:05:45.053Z,18.90
2018-12-15T04:08:12.581Z,17.40
2018-12-15T04:10:40.097Z,28.20
2018-12-15T04:13:07.616Z,20.32
2018-12-15T04:15:35.201Z,26.30
2018-12-15T04:18:03.844Z,19.27
2018-12-15T04:20:31.655Z,19.00
2018-12-15T04:22:59.174Z,20.37
2018-12-15T04:25:27.120Z,19.53
2018-12-15T04:27:54.639Z,18.70
2018-12-15T04:30:22.160Z,18.45
2018-12-15T04:32:49.670Z,26.00
2018-12-15T04:35:17.277Z,22.30
2018-12-15T04:37:44.784Z,18.90
2018-12-15T04:40:12.572Z,21.07
2018-12-15T04:42:40.074Z,19.10
2018-12-15T04:45:07.583Z,21.03
2018-12-15T04:47:35.202Z,17.93
2018-12-15T04:50:02.728Z,19.27
2018-12-15T04:52:30.267Z,19.97
2018-12-15T04:54:57.793Z,18.80
2018-12-15T04:57:25.356Z,17.37
2018-12-15T04:59:52.883Z,18.93
2018-12-15T05:02:20.401Z,20.23
2018-12-15T05:04:47.951Z,16.60
2018-12-15T05:07:15.461Z,16.27
2018-12-15T05:09:42.984Z,16.17
2018-12-15T05:12:10.513Z,17.50
2018-12-15T05:14:38.040Z,19.23
2018-12-15T05:17:05.893Z,18.23
2018-12-15T05:19:33.425Z,17.50
2018-12-15T05:22:01.432Z,18.37
2018-12-15T05:24:28.966Z,17.43
2018-12-15T05:26:56.483Z,19.57
2018-12-15T05:29:24.001Z,18.17
2018-12-15T05:31:51.556Z,17.40
2018-12-15T05:34:19.084Z,18.47
2018-12-15T05:36:46.603Z,17.67
2018-12-15T05:39:14.118Z,18.73
2018-12-15T05:41:41.935Z,19.07
2018-12-15T05:44:09.497Z,19.00
2018-12-15T05:46:37.020Z,19.10
2018-12-15T05:49:04.608Z,17.20
2018-12-15T05:51:32.395Z,18.27
2018-12-15T05:54:00.024Z,19.63
2018-12-15T05:56:27.586Z,20.10
2018-12-15T05:58:55.116Z,17.77
2018-12-15T06:01:22.628Z,17.90
2018-12-15T06:03:50.157Z,16.77
2018-12-15T06:06:17.990Z,17.27
2018-12-15T06:08:45.502Z,16.60
2018-12-15T06:11:13.030Z,17.83
2018-12-15T06:13:40.875Z,18.43
2018-12-15T06:16:08.397Z,17.17
2018-12-15T06:18:35.936Z,16.83
2018-12-15T06:21:03.495Z,18.77
2018-12-15T06:23:31.001Z,17.10
2018-12-15T06:25:58.775Z,18.70
2018-12-15T06:28:26.291Z,17.37
2018-12-15T06:30:54.135Z,19.37
2018-12-15T06:33:21.923Z,18.40
2018-12-15T06:35:49.622Z,22.60
2018-12-15T06:38:17.130Z,17.40
2018-12-15T06:40:45.012Z,15.30
2018-12-15T06:43:12.547Z,72.40
2018-12-15T06:45:40.150Z,16.00
2018-12-15T06:48:07.656Z,15.30
2018-12-15T06:50:35.190Z,16.47
2018-12-15T06:53:02.994Z,16.50
2018-12-15T06:55:30.704Z,16.10
2018-12-15T06:57:58.236Z,14.20
2018-12-15T07:00:25.782Z,16.03
2018-12-15T07:02:53.286Z,14.70
2018-12-15T07:05:20.872Z,13.85
2018-12-15T07:07:48.385Z,15.20
2018-12-15T07:10:15.903Z,14.40
2018-12-15T07:12:43.430Z,15.50
2018-12-15T07:15:10.963Z,13.38
2018-12-15T07:17:38.485Z,13.10
2018-12-15T07:20:06.729Z,15.93
2018-12-15T07:22:34.341Z,15.37
2018-12-15T07:25:01.903Z,17.90
2018-12-15T07:27:29.427Z,15.13
2018-12-15T07:29:57.027Z,15.00
2018-12-15T07:32:24.779Z,15.50
2018-12-15T07:34:52.302Z,13.55
2018-12-15T07:37:19.924Z,35.87
2018-12-15T07:39:47.433Z,38.70
2018-12-15T07:42:14.962Z,30.40
2018-12-15T07:44:42.501Z,27.03
2018-12-15T07:47:10.039Z,34.30
2018-12-15T07:49:37.850Z,41.80
2018-12-15T07:52:05.373Z,25.00
2018-12-15T07:54:32.914Z,18.03
2018-12-15T07:57:00.444Z,23.25
2018-12-15T07:59:27.958Z,20.30
2018-12-15T08:01:55.517Z,18.00
2018-12-15T08:04:23.091Z,17.80
2018-12-15T08:06:50.617Z,17.92
2018-12-15T08:09:18.242Z,16.27
2018-12-15T08:11:51.514Z,19.30
2018-12-15T08:14:19.013Z,17.03
2018-12-15T08:16:46.536Z,16.90
2018-12-15T08:19:14.098Z,17.30
2018-12-15T08:21:42.547Z,15.60
2018-12-15T08:24:10.063Z,16.90
2018-12-15T08:26:37.863Z,17.63
2018-12-15T08:29:05.745Z,17.30
2018-12-15T08:31:33.255Z,14.80
2018-12-15T08:34:00.800Z,15.18
2018-12-15T08:36:28.314Z,14.80
2018-12-15T08:38:56.109Z,18.80
2018-12-15T08:41:23.635Z,16.93
2018-12-15T08:43:51.188Z,15.32
2018-12-15T08:46:18.813Z,14.30
2018-12-15T08:48:46.466Z,13.75
2018-12-15T08:51:14.135Z,13.10
2018-12-15T08:53:41.654Z,16.00
2018-12-15T08:56:09.205Z,16.47
2018-12-15T08:58:36.710Z,14.50
2018-12-15T09:01:04.232Z,15.23
2018-12-15T09:03:31.773Z,14.90
2018-12-15T09:05:59.635Z,15.53
2018-12-15T09:08:27.175Z,18.87
2018-12-15T09:10:54.764Z,19.87
2018-12-15T09:13:22.315Z,19.77
2018-12-15T09:15:49.830Z,15.95
2018-12-15T09:18:17.346Z,16.63
2018-12-15T09:20:44.923Z,21.10
2018-12-15T09:23:12.470Z,21.73
2018-12-15T09:25:40.083Z,18.40
2018-12-15T09:28:07.622Z,18.33
2018-12-15T09:30:35.133Z,14.50
2018-12-15T09:33:02.654Z,18.67
2018-12-15T09:35:30.493Z,16.23
2018-12-15T09:37:58.067Z,14.13
2018-12-15T09:40:25.609Z,12.20
2018-12-15T09:42:53.142Z,13.13
2018-12-15T09:45:20.669Z,15.57
2018-12-15T09:47:48.223Z,14.27
2018-12-15T09:50:16.630Z,13.17
2018-12-15T09:52:44.144Z,12.63
2018-12-15T09:55:11.670Z,14.35
2018-12-15T09:57:39.203Z,12.40
2018-12-15T10:00:07.544Z,14.77
2018-12-15T10:02:36.066Z,29.53
2018-12-15T10:05:04.197Z,15.23
2018-12-15T10:07:31.728Z,13.43
2018-12-15T10:09:59.370Z,14.40
2018-12-15T10:12:26.883Z,15.47
2018-12-15T10:14:54.407Z,13.58
2018-12-15T10:17:21.918Z,14.57
2018-12-15T10:19:49.449Z,13.30
2018-12-15T10:22:16.959Z,13.60
2018-12-15T10:24:44.740Z,12.98
2018-12-15T10:27:12.276Z,14.30
2018-12-15T10:29:45.432Z,14.90
2018-12-15T10:32:18.813Z,14.30
2018-12-15T10:34:46.847Z,13.93
2018-12-15T10:37:14.377Z,13.30
2018-12-15T10:39:41.925Z,14.47
2018-12-15T10:42:09.733Z,14.40
2018-12-15T10:44:37.257Z,14.00
2018-12-15T10:47:04.803Z,17.43
2018-12-15T10:49:33.125Z,14.90
2018-12-15T10:52:00.651Z,12.73
2018-12-15T10:54:28.183Z,14.80
2018-12-15T10:56:55.795Z,13.17
2018-12-15T10:59:23.320Z,12.80
2018-12-15T11:01:51.121Z,15.73
2018-12-15T11:04:18.671Z,14.20
2018-12-15T11:06:46.213Z,13.87
2018-12-15T11:09:13.759Z,14.57
2018-12-15T11:11:41.339Z,13.93
2018-12-15T11:14:08.951Z,13.87
2018-12-15T11:16:36.468Z,13.90
2018-12-15T11:19:04.074Z,15.10
2018-12-15T11:21:32.204Z,13.77
2018-12-15T11:23:59.724Z,15.60
2018-12-15T11:26:27.250Z,16.33
2018-12-15T11:28:54.790Z,16.57
2018-12-15T11:31:22.310Z,15.13
2018-12-15T11:33:49.838Z,17.90
2018-12-15T11:36:17.362Z,16.87
2018-12-15T11:38:44.902Z,17.12
2018-12-15T11:41:12.433Z,16.40
2018-12-15T11:43:39.946Z,16.97
2018-12-15T11:46:07.494Z,17.40
2018-12-15T11:48:36.139Z,18.10
2018-12-15T11:51:04.168Z,18.82
2018-12-15T11:53:31.710Z,16.00
2018-12-15T11:55:59.307Z,16.63
2018-12-15T11:58:26.837Z,16.97
2018-12-15T12:00:54.345Z,18.00
2018-12-15T12:03:21.867Z,17.60
2018-12-15T12:05:49.401Z,16.13
2018-12-15T12:08:17.013Z,15.70
2018-12-15T12:10:44.540Z,18.70
2018-12-15T12:13:12.064Z,15.73
2018-12-15T12:15:39.571Z,16.37
2018-12-15T12:18:07.100Z,16.33
2018-12-15T12:20:34.631Z,17.57
2018-12-15T12:23:02.236Z,18.00
2018-12-15T12:25:29.815Z,17.20
2018-12-15T12:27:57.375Z,41.00
2018-12-15T12:30:24.895Z,29.60
2018-12-15T12:32:52.445Z,35.83
2018-12-15T12:35:20.019Z,47.03
2018-12-15T12:37:47.564Z,19.00
2018-12-15T12:40:15.080Z,17.05
2018-12-15T12:42:42.889Z,17.75
2018-12-15T12:45:10.472Z,15.97
2018-12-15T12:47:38.013Z,16.60
2018-12-15T12:50:06.481Z,17.27
2018-12-15T12:52:34.094Z,16.70
2018-12-15T12:55:01.684Z,19.60
2018-12-15T12:57:29.470Z,18.00
2018-12-15T12:59:57.005Z,18.37
2018-12-15T13:02:24.520Z,18.20
2018-12-15T13:04:52.054Z,20.13
2018-12-15T13:07:19.584Z,19.50
2018-12-15T13:09:47.100Z,19.07
2018-12-15T13:12:14.714Z,19.77
2018-12-15T13:14:42.253Z,21.30
2018-12-15T13:17:09.797Z,18.27
2018-12-15T13:19:37.313Z,19.97
2018-12-15T13:22:04.842Z,18.50
2018-12-15T13:24:32.435Z,19.80
2018-12-15T13:26:59.993Z,20.23
2018-12-15T13:29:27.519Z,20.57
2018-12-15T13:31:55.323Z,19.20
2018-12-15T13:34:22.852Z,18.63
2018-12-15T13:36:50.381Z,20.30
2018-12-15T13:39:17.904Z,17.93
2018-12-15T13:41:45.524Z,18.53
2018-12-15T13:44:13.042Z,19.00
2018-12-15T13:46:40.573Z,17.60
2018-12-15T13:49:08.492Z,18.23
2018-12-15T13:51:36.098Z,18.37
2018-12-15T13:54:03.826Z,19.57
2018-12-15T13:56:31.344Z,18.30
2018-12-15T13:58:58.878Z,19.97
2018-12-15T14:01:26.413Z,18.73
2018-12-15T14:03:53.945Z,19.40
2018-12-15T14:06:21.751Z,22.67
2018-12-15T14:08:49.297Z,19.67
2018-12-15T14:11:16.831Z,17.12
2018-12-15T14:13:44.365Z,21.27
2018-12-15T14:16:11.883Z,19.23
2018-12-15T14:18:39.474Z,21.10
2018-12-15T14:21:06.987Z,23.80
2018-12-15T14:23:34.521Z,21.57
2018-12-15T14:26:04.301Z,21.60
2018-12-15T14:28:31.846Z,18.63
2018-12-15T14:30:59.371Z,22.50
2018-12-15T14:33:26.910Z,18.17
2018-12-15T14:35:54.445Z,20.30
2018-12-15T14:38:22.146Z,20.23
2018-12-15T14:40:49.663Z,20.37
2018-12-15T14:43:17.674Z,18.83
2018-12-15T14:45:45.246Z,20.30
2018-12-15T14:48:12.760Z,21.20
2018-12-15T14:50:40.286Z,20.37
2018-12-15T14:53:07.830Z,22.57
2018-12-15T14:55:35.402Z,22.07
2018-12-15T14:58:03.270Z,19.90
2018-12-15T15:00:30.808Z,19.07
2018-12-15T15:02:58.326Z,20.30
2018-12-15T15:05:25.847Z,20.02
2018-12-15T15:07:53.369Z,19.73
2018-12-15T15:10:20.991Z,22.10
2018-12-15T15:12:48.508Z,19.57
2018-12-15T15:15:16.345Z,18.60
2018-12-15T15:17:43.895Z,19.40
2018-12-15T15:20:11.712Z,19.75
2018-12-15T15:22:39.242Z,20.50
2018-12-15T15:25:06.942Z,19.80
2018-12-15T15:27:34.488Z,20.07
2018-12-15T15:30:02.124Z,20.30
2018-12-15T15:32:29.639Z,22.77
2018-12-15T15:34:57.444Z,20.73
2018-12-15T15:37:25.022Z,21.03
2018-12-15T15:39:52.562Z,20.60
2018-12-15T15:42:20.079Z,19.67
2018-12-15T15:44:47.590Z,18.80
2018-12-15T15:47:15.135Z,20.50
2018-12-15T15:49:43.267Z,19.03
2018-12-15T15:52:10.800Z,20.43
2018-12-15T15:54:38.489Z,21.50
2018-12-15T15:57:06.350Z,21.65
2018-12-15T15:59:33.875Z,19.63
2018-12-15T16:02:01.398Z,19.70
2018-12-15T16:04:28.957Z,18.82
2018-12-15T16:06:56.476Z,20.23
2018-12-15T16:09:23.997Z,19.05
2018-12-15T16:11:51.501Z,22.20
2018-12-15T16:14:19.003Z,20.88
2018-12-15T16:16:46.529Z,20.50
2018-12-15T16:19:14.041Z,19.73
2018-12-15T16:21:41.580Z,18.30
2018-12-15T16:24:09.215Z,20.57
2018-12-15T16:26:36.761Z,19.33
2018-12-15T16:29:04.293Z,20.17
2018-12-15T16:31:31.852Z,19.80
2018-12-15T16:33:59.366Z,20.25
2018-12-15T16:36:26.905Z,20.60
2018-12-15T16:38:54.427Z,21.63
2018-12-15T16:41:21.964Z,18.25
2018-12-15T16:43:49.491Z,18.50
2018-12-15T16:46:17.141Z,19.77
2018-12-15T16:48:44.711Z,19.40
2018-12-15T16:51:12.650Z,19.00
2018-12-15T16:53:40.183Z,18.67
2018-12-15T16:56:08.013Z,18.77
2018-12-15T16:58:35.548Z,21.30
2018-12-15T17:01:03.092Z,20.87
2018-12-15T17:03:30.992Z,18.57
2018-12-15T17:05:58.607Z,21.33
2018-12-15T17:08:26.131Z,22.30
2018-12-15T17:10:53.663Z,22.90
2018-12-15T17:13:21.191Z,23.50
2018-12-15T17:15:48.711Z,23.07
2018-12-15T17:18:16.247Z,21.82
2018-12-15T17:20:44.070Z,26.03
2018-12-15T17:23:11.605Z,24.40
2018-12-15T17:25:39.607Z,22.90
2018-12-15T17:28:07.129Z,22.83
2018-12-15T17:30:35.161Z,20.60
2018-12-15T17:33:02.691Z,21.77
2018-12-15T17:35:30.217Z,23.47
2018-12-15T17:37:57.897Z,22.47
2018-12-15T17:40:25.435Z,21.80
2018-12-15T17:42:52.954Z,23.03
2018-12-15T17:45:20.490Z,23.37
2018-12-15T17:47:48.020Z,28.07
2018-12-15T17:50:15.562Z,22.37
2018-12-15T17:52:43.118Z,20.97
2018-12-15T17:55:10.738Z,25.25
2018-12-15T17:57:38.296Z,21.47
2018-12-15T18:00:08.402Z,20.70
2018-12-15T18:02:35.948Z,21.60
2018-12-15T18:05:04.789Z,21.20
2018-12-15T18:07:32.327Z,19.70
2018-12-15T18:09:59.851Z,19.03
2018-12-15T18:12:27.381Z,20.93
2018-12-15T18:14:54.933Z,19.50
2018-12-15T18:17:22.596Z,20.37
2018-12-15T18:19:50.132Z,24.40
2018-12-15T18:22:17.691Z,44.53
2018-12-15T18:24:45.221Z,41.33
2018-12-15T18:27:12.731Z,34.20
2018-12-15T18:29:40.259Z,32.47
2018-12-15T18:32:07.798Z,41.80
2018-12-15T18:34:35.328Z,29.67
2018-12-15T18:37:02.875Z,27.13
2018-12-15T18:39:30.394Z,33.30
2018-12-15T18:41:57.956Z,27.93
2018-12-15T18:44:26.409Z,28.77
2018-12-15T18:46:53.944Z,37.97
2018-12-15T18:49:21.508Z,34.67
2018-12-15T18:51:49.059Z,23.30
2018-12-15T18:54:16.603Z,19.95
2018-12-15T18:56:45.540Z,20.30
2018-12-15T18:59:13.352Z,16.75
2018-12-15T19:01:40.872Z,17.20
2018-12-15T19:04:08.435Z,17.43
2018-12-15T19:06:36.090Z,14.73
2018-12-15T19:09:06.070Z,15.60
2018-12-15T19:11:33.621Z,19.23
2018-12-15T19:14:01.356Z,17.83
2018-12-15T19:16:29.685Z,22.50
2018-12-15T19:18:57.303Z,19.37
2018-12-15T19:21:25.556Z,18.23
2018-12-15T19:23:53.177Z,17.60
2018-12-15T19:26:20.751Z,15.33
2018-12-15T19:28:48.299Z,14.43
2018-12-15T19:31:15.949Z,18.10
2018-12-15T19:33:43.528Z,17.60
2018-12-15T19:36:11.075Z,17.17
2018-12-15T19:38:38.701Z,17.60
2018-12-15T19:41:06.255Z,16.17
2018-12-15T19:43:33.822Z,17.73
2018-12-15T19:46:02.464Z,16.13
2018-12-15T19:48:30.032Z,14.07
2018-12-15T19:50:57.693Z,12.68
2018-12-15T19:53:25.226Z,11.80
2018-12-15T19:55:52.768Z,11.10
2018-12-15T19:58:20.295Z,11.67
2018-12-15T20:00:47.847Z,11.53
2018-12-15T20:03:15.517Z,12.27
2018-12-15T20:05:43.093Z,11.37
2018-12-15T20:08:10.762Z,12.10
2018-12-15T20:10:38.315Z,10.73
2018-12-15T20:13:05.873Z,10.08
2018-12-15T20:15:33.432Z,12.20
2018-12-15T20:18:01.415Z,10.97
2018-12-15T20:20:28.983Z,10.90
2018-12-15T20:22:56.527Z,9.97
2018-12-15T20:25:24.518Z,9.87
2018-12-15T20:27:52.094Z,10.37
2018-12-15T20:30:20.042Z,9.40
2018-12-15T20:32:47.615Z,9.75
2018-12-15T20:35:15.178Z,10.77
2018-12-15T20:37:42.734Z,9.20
2018-12-15T20:40:10.283Z,8.75
2018-12-15T20:42:37.841Z,9.53
2018-12-15T20:45:06.113Z,7.67
2018-12-15T20:47:34.557Z,9.43
2018-12-15T20:50:02.179Z,9.00
2018-12-15T20:52:29.757Z,7.83
2018-12-15T20:54:57.299Z,8.27
2018-12-15T20:57:24.907Z,8.17
2018-12-15T20:59:52.819Z,6.43
2018-12-15T21:02:20.371Z,9.30
2018-12-15T21:04:48.125Z,9.73
2018-12-15T21:07:15.658Z,10.00
2018-12-15T21:09:43.209Z,11.00
2018-12-15T21:12:11.009Z,13.50
2018-12-15T21:14:38.542Z,17.67
2018-12-15T21:17:06.080Z,12.90
2018-12-15T21:19:33.915Z,13.47
2018-12-15T21:22:01.455Z,11.67
2018-12-15T21:24:29.041Z,11.30
2018-12-15T21:26:56.579Z,9.53
2018-12-15T21:29:24.122Z,9.27
2018-12-15T21:31:56.656Z,7.67
2018-12-15T21:34:21.422Z,6.90
2018-12-15T21:36:48.999Z,7.20
2018-12-15T21:39:16.558Z,10.70
2018-12-15T21:41:44.088Z,15.60
2018-12-15T21:44:11.654Z,12.17
2018-12-15T21:46:39.197Z,9.60
2018-12-15T21:49:07.753Z,7.20
2018-12-15T21:51:35.629Z,7.23
2018-12-15T21:54:03.601Z,7.70
2018-12-15T21:56:31.122Z,6.50
2018-12-15T21:58:58.670Z,7.90
2018-12-15T22:01:26.200Z,8.27
2018-12-15T22:03:53.936Z,8.83
2018-12-15T22:06:21.463Z,9.70
2018-12-15T22:08:49.290Z,6.57
2018-12-15T22:11:16.832Z,7.90
2018-12-15T22:13:44.363Z,6.70
2018-12-15T22:16:11.880Z,7.10
2018-12-15T22:18:39.422Z,6.97
2018-12-15T22:21:07.022Z,7.20
2018-12-15T22:23:34.564Z,7.30
2018-12-15T22:26:02.146Z,6.42
2018-12-15T22:28:29.714Z,7.13
2018-12-15T22:30:57.238Z,7.10
2018-12-15T22:33:24.773Z,8.37
2018-12-15T22:35:52.559Z,8.10
2018-12-15T22:38:20.073Z,7.63
2018-12-15T22:40:47.673Z,6.47
2018-12-15T22:43:15.199Z,8.03
2018-12-15T22:45:42.727Z,8.10
2018-12-15T22:48:10.245Z,7.87
2018-12-15T22:50:37.778Z,7.30
2018-12-15T22:53:05.308Z,8.70
2018-12-15T22:55:32.912Z,8.80
2018-12-15T22:58:00.691Z,7.20
2018-12-15T23:00:30.194Z,8.10
2018-12-15T23:02:57.716Z,7.30
2018-12-15T23:05:25.258Z,7.30
2018-12-15T23:07:52.796Z,5.73
2018-12-15T23:10:20.358Z,7.83
2018-12-15T23:12:47.865Z,6.83
2018-12-15T23:15:15.430Z,5.83
2018-12-15T23:17:43.711Z,7.13
2018-12-15T23:20:11.324Z,6.47
2018-12-15T23:22:38.851Z,6.33
2018-12-15T23:25:06.516Z,6.03
2018-12-15T23:27:34.035Z,7.53
2018-12-15T23:30:01.543Z,7.00
2018-12-15T23:32:29.074Z,7.10
2018-12-15T23:34:56.615Z,7.63
2018-12-15T23:37:24.442Z,6.40
2018-12-15T23:39:51.957Z,8.10
2018-12-15T23:42:19.469Z,6.87
2018-12-15T23:44:46.986Z,7.87
2018-12-15T23:47:14.505Z,7.60
2018-12-15T23:49:42.106Z,6.63
2018-12-15T23:52:09.617Z,6.40
2018-12-15T23:54:37.136Z,7.80
2018-12-15T23:57:04.666Z,7.00
2018-12-15T23:59:32.272Z,7.40
